Time;durP1;ratioP1;P1;durP2;ratioP2;P2;SDS_P1;SDS_P2;PMS_P1;PMS_P2;Temp;Humidity;BMP_temperature;BMP_pressure;BME280_temperature;BME280_humidity;BME280_pressure;Samples;Min_cycle;Max_cycle;Signal;HPM_P1;HPM_P2
2023/09/25 00:02:41;;;;;;;1.53;0.90;;;;;;;;;;20819661;28;20490;-86
2023/09/25 00:12:43;;;;;;;0.80;0.57;;;;;;;;;;20786438;28;20238;-87
2023/09/25 00:22:45;;;;;;;1.50;0.73;;;;;;;;;;20786043;28;20714;-87
2023/09/25 00:32:48;;;;;;;1.03;0.53;;;;;;;;;;20735274;28;20239;-85
2023/09/25 00:42:50;;;;;;;1.93;0.63;;;;;;;;;;20801438;28;20227;-85
2023/09/25 00:52:52;;;;;;;1.30;0.77;;;;;;;;;;20771719;28;20230;-85
2023/09/25 01:02:54;;;;;;;1.27;0.60;;;;;;;;;;20751872;28;20694;-85
2023/09/25 01:12:56;;;;;;;1.23;0.67;;;;;;;;;;20776013;28;20280;-86
2023/09/25 01:22:58;;;;;;;1.33;0.80;;;;;;;;;;20763439;28;20681;-86
2023/09/25 01:33:00;;;;;;;1.43;0.70;;;;;;;;;;20809133;28;20392;-85
2023/09/25 01:43:02;;;;;;;0.73;0.50;;;;;;;;;;20850066;28;20665;-86
2023/09/25 01:53:04;;;;;;;1.07;0.70;;;;;;;;;;20788450;28;20269;-86
2023/09/25 02:03:06;;;;;;;0.70;0.50;;;;;;;;;;20749520;28;20241;-85
2023/09/25 02:13:09;;;;;;;0.80;0.57;;;;;;;;;;20782042;28;20235;-84
2023/09/25 02:23:10;;;;;;;1.07;0.60;;;;;;;;;;20781697;28;20283;-85
2023/09/25 02:33:12;;;;;;;2.47;0.77;;;;;;;;;;20655664;28;20228;-85
2023/09/25 02:43:14;;;;;;;1.10;0.70;;;;;;;;;;20687141;28;20293;-86
2023/09/25 02:53:16;;;;;;;1.07;0.60;;;;;;;;;;20674840;28;20223;-87
2023/09/25 03:03:18;;;;;;;1.60;1.00;;;;;;;;;;20621497;28;20224;-86
2023/09/25 03:13:20;;;;;;;2.43;0.60;;;;;;;;;;20633170;28;20264;-85
2023/09/25 03:23:21;;;;;;;1.63;0.67;;;;;;;;;;20639087;28;20223;-83
2023/09/25 03:33:27;;;;;;;1.53;0.63;;;;;;;;;;20694073;28;20275;-84
2023/09/25 03:43:30;;;;;;;1.53;0.70;;;;;;;;;;20649496;28;20289;-84
2023/09/25 03:53:32;;;;;;;1.33;0.70;;;;;;;;;;20653549;28;20227;-83
2023/09/25 04:03:34;;;;;;;1.73;0.87;;;;;;;;;;20720301;28;20219;-82
2023/09/25 04:13:36;;;;;;;1.20;0.70;;;;;;;;;;20657892;28;20605;-83
2023/09/25 04:23:38;;;;;;;1.00;0.63;;;;;;;;;;20641610;28;20224;-83
2023/09/25 04:33:40;;;;;;;1.20;0.60;;;;;;;;;;20640128;28;20277;-82
2023/09/25 04:43:42;;;;;;;1.70;0.50;;;;;;;;;;20657418;28;20294;-84
2023/09/25 04:53:44;;;;;;;1.13;0.67;;;;;;;;;;20627738;28;20220;-84
2023/09/25 05:03:46;;;;;;;1.10;0.80;;;;;;;;;;20653191;28;20216;-84
2023/09/25 05:13:49;;;;;;;0.93;0.40;;;;;;;;;;20643433;28;20272;-83
2023/09/25 05:23:51;;;;;;;1.20;0.70;;;;;;;;;;20625229;28;20232;-83
2023/09/25 05:33:53;;;;;;;2.83;1.13;;;;;;;;;;20654691;28;20224;-83
2023/09/25 05:43:56;;;;;;;2.23;0.80;;;;;;;;;;20660400;28;20325;-82
2023/09/25 05:53:58;;;;;;;1.40;0.80;;;;;;;;;;20627140;28;20223;-82
2023/09/25 06:04:01;;;;;;;2.50;1.20;;;;;;;;;;20642423;28;20231;-82
2023/09/25 06:14:03;;;;;;;3.73;0.93;;;;;;;;;;20616040;28;20223;-81
2023/09/25 06:24:09;;;;;;;1.20;0.67;;;;;;;;;;20655165;28;20243;-82
2023/09/25 06:34:11;;;;;;;1.43;0.73;;;;;;;;;;20689015;28;20242;-82
2023/09/25 06:44:13;;;;;;;1.20;0.73;;;;;;;;;;20661420;28;20270;-81
2023/09/25 06:54:15;;;;;;;1.67;1.20;;;;;;;;;;20651490;28;20278;-83
2023/09/25 07:04:16;;;;;;;2.47;0.80;;;;;;;;;;20664980;28;20676;-83
2023/09/25 07:14:18;;;;;;;5.37;0.60;;;;;;;;;;20628571;28;20217;-84
2023/09/25 07:24:19;;;;;;;3.13;0.77;;;;;;;;;;20643816;28;20229;-82
2023/09/25 07:34:23;;;;;;;1.63;0.80;;;;;;;;;;20661866;28;20286;-82
2023/09/25 07:44:26;;;;;;;1.27;0.70;;;;;;;;;;20668435;28;20220;-82
2023/09/25 07:54:28;;;;;;;2.13;0.80;;;;;;;;;;20660769;28;20620;-82
2023/09/25 08:04:30;;;;;;;1.37;0.90;;;;;;;;;;20677643;28;20204;-83
2023/09/25 08:14:32;;;;;;;1.60;0.97;;;;;;;;;;20652924;28;20212;-83
2023/09/25 08:24:34;;;;;;;2.93;0.70;;;;;;;;;;20644231;28;20274;-84
2023/09/25 08:34:36;;;;;;;2.03;1.10;;;;;;;;;;20655383;28;20274;-85
2023/09/25 08:44:38;;;;;;;2.67;1.10;;;;;;;;;;20648235;28;20219;-84
2023/09/25 08:54:40;;;;;;;2.00;1.10;;;;;;;;;;20658573;28;20329;-85
2023/09/25 09:04:42;;;;;;;1.90;0.83;;;;;;;;;;20661284;28;20223;-84
2023/09/25 09:14:44;;;;;;;1.57;1.00;;;;;;;;;;20605223;28;20219;-84
2023/09/25 09:24:47;;;;;;;2.83;1.43;;;;;;;;;;20620516;28;20231;-85
2023/09/25 09:34:49;;;;;;;2.43;1.10;;;;;;;;;;20630359;28;20215;-85
2023/09/25 09:44:51;;;;;;;3.13;1.50;;;;;;;;;;20635965;28;20216;-84
2023/09/25 09:54:54;;;;;;;3.13;1.10;;;;;;;;;;20701782;28;20319;-84
2023/09/25 10:04:56;;;;;;;2.97;1.13;;;16.90;99.90;;;;;;20679433;28;20715;-82
2023/09/25 10:14:58;;;;;;;2.50;1.33;;;;;;;;;;20639918;28;20232;-80
2023/09/25 10:25:05;;;;;;;1.90;1.00;;;;;;;;;;20640346;28;20236;-81
2023/09/25 10:35:25;;;;;;;4.90;1.23;;;;;;;;;;20633141;28;20223;-80
2023/09/25 10:45:27;;;;;;;2.50;0.80;;;;;;;;;;20634075;28;21272;-84
2023/09/25 10:55:29;;;;;;;2.30;0.77;;;;;;;;;;20637411;28;20609;-83
2023/09/25 11:05:31;;;;;;;1.63;0.90;;;;;;;;;;20665916;28;20215;-83
2023/09/25 11:15:40;;;;;;;1.57;0.70;;;18.70;99.90;;;;;;20649414;28;20723;-82
2023/09/25 11:25:45;;;;;;;1.30;0.77;;;19.10;99.90;;;;;;20655623;28;20294;-82
2023/09/25 11:35:49;;;;;;;1.97;0.70;;;;;;;;;;20675149;28;20727;-83
2023/09/25 11:45:51;;;;;;;1.93;0.90;;;;;;;;;;20642182;28;20228;-82
2023/09/25 11:55:53;;;;;;;1.57;0.60;;;;;;;;;;20657999;28;20556;-83
2023/09/25 12:05:55;;;;;;;1.90;0.80;;;;;;;;;;20627649;28;20224;-83
2023/09/25 12:15:57;;;;;;;1.07;0.70;;;;;;;;;;20625459;28;20602;-82
2023/09/25 12:25:59;;;;;;;0.60;0.50;;;;;;;;;;20651204;28;20232;-83
2023/09/25 12:36:01;;;;;;;1.83;0.60;;;;;;;;;;20642707;28;20238;-82
2023/09/25 12:46:02;;;;;;;0.67;0.50;;;;;;;;;;20628732;28;20271;-83
2023/09/25 12:56:04;;;;;;;1.43;0.60;;;;;;;;;;20650942;28;20385;-82
2023/09/25 13:06:06;;;;;;;0.87;0.60;;;;;;;;;;20662690;28;20256;-84
2023/09/25 13:16:09;;;;;;;0.87;0.57;;;;;;;;;;20651136;28;20233;-83
2023/09/25 13:26:11;;;;;;;0.70;0.40;;;;;;;;;;20621943;28;20305;-82
2023/09/25 13:36:16;;;;;;;2.00;1.20;;;20.90;99.90;;;;;;20628787;28;20222;-82
2023/09/25 13:46:18;;;;;;;0.60;0.40;;;;;;;;;;20660283;28;20264;-82
2023/09/25 13:56:20;;;;;;;0.97;0.50;;;;;;;;;;20617288;28;20693;-82
2023/09/25 14:06:23;;;;;;;1.57;0.60;;;;;;;;;;20656150;28;20230;-83
2023/09/25 14:16:25;;;;;;;0.57;0.40;;;;;;;;;;20651185;28;20379;-83
2023/09/25 14:26:27;;;;;;;0.63;0.40;;;;;;;;;;20615008;28;20780;-82
2023/09/25 14:36:29;;;;;;;1.10;0.50;;;;;;;;;;20640672;28;20222;-83
2023/09/25 14:46:31;;;;;;;0.70;0.57;;;;;;;;;;20658831;28;20219;-83
2023/09/25 14:56:32;;;;;;;1.33;0.50;;;;;;;;;;20614377;28;20223;-84
2023/09/25 15:06:34;;;;;;;0.77;0.53;;;;;;;;;;20633013;28;20275;-83
2023/09/25 15:16:36;;;;;;;0.97;0.53;;;;;;;;;;20617135;28;20225;-83
2023/09/25 15:26:37;;;;;;;1.90;0.40;;;;;;;;;;20656565;28;20234;-83
2023/09/25 15:36:39;;;;;;;0.87;0.40;;;;;;;;;;20676026;28;20762;-84
2023/09/25 15:46:41;;;;;;;0.60;0.33;;;;;;;;;;20649303;28;20218;-84
2023/09/25 15:56:43;;;;;;;0.90;0.40;;;;;;;;;;20640634;28;20744;-82
2023/09/25 16:06:44;;;;;;;1.13;0.60;;;;;;;;;;20647557;28;20586;-81
2023/09/25 16:16:46;;;;;;;0.77;0.50;;;;;;;;;;20631542;28;20573;-82
2023/09/25 16:26:47;;;;;;;0.50;0.40;;;;;;;;;;20630579;28;20234;-82
2023/09/25 16:36:50;;;;;;;1.10;0.47;;;;;;;;;;20682802;28;20604;-83
2023/09/25 16:46:51;;;;;;;2.97;0.60;;;;;;;;;;20632138;28;20209;-82
2023/09/25 16:56:53;;;;;;;3.47;0.60;;;;;;;;;;20624113;28;20771;-83
2023/09/25 17:06:55;;;;;;;3.33;0.57;;;;;;;;;;20638755;28;20233;-83
2023/09/25 17:16:57;;;;;;;2.63;0.60;;;;;;;;;;20629241;28;20212;-82
2023/09/25 17:26:58;;;;;;;1.73;0.90;;;;;;;;;;20644219;28;20290;-83
2023/09/25 17:37:02;;;;;;;4.13;2.40;;;;;;;;;;20668406;28;20282;-81
2023/09/25 17:47:04;;;;;;;5.77;3.20;;;;;;;;;;20634143;28;20708;-82
2023/09/25 17:57:07;;;;;;;5.63;3.03;;;;;;;;;;20637608;28;20588;-82
2023/09/25 18:07:09;;;;;;;3.40;1.40;;;;;;;;;;20670053;28;20229;-83
2023/09/25 18:17:11;;;;;;;2.97;1.50;;;;;;;;;;20644445;28;20220;-82
2023/09/25 18:27:12;;;;;;;1.67;1.13;;;;;;;;;;20634107;28;20236;-84
2023/09/25 18:37:14;;;;;;;1.43;0.70;;;;;;;;;;20657627;28;20224;-83
2023/09/25 18:47:16;;;;;;;1.47;0.70;;;;;;;;;;20646331;28;20782;-82
2023/09/25 18:57:18;;;;;;;0.70;0.40;;;;;;;;;;20647094;28;20282;-83
2023/09/25 19:07:20;;;;;;;0.93;0.67;;;;;;;;;;20650601;28;20220;-83
2023/09/25 19:17:23;;;;;;;1.90;0.80;;;;;;;;;;20661937;28;20228;-84
2023/09/25 19:27:24;;;;;;;1.30;0.60;;;;;;;;;;20630831;28;20255;-83
2023/09/25 19:37:26;;;;;;;1.37;0.77;;;;;;;;;;20632951;28;20286;-83
2023/09/25 19:47:29;;;;;;;1.73;0.87;;;;;;;;;;20650260;28;20306;-83
2023/09/25 19:57:31;;;;;;;1.00;0.60;;;;;;;;;;20630856;28;20223;-81
2023/09/25 20:07:32;;;;;;;1.40;0.57;;;;;;;;;;20659347;28;20232;-83
2023/09/25 20:17:34;;;;;;;2.07;0.90;;;;;;;;;;20646364;28;20223;-84
2023/09/25 20:27:36;;;;;;;1.10;0.70;;;;;;;;;;20630435;28;20286;-83
2023/09/25 20:37:38;;;;;;;1.67;0.80;;;;;;;;;;20665024;28;20236;-84
2023/09/25 20:47:40;;;;;;;1.10;0.80;;;;;;;;;;20657931;28;20212;-85
2023/09/25 20:57:41;;;;;;;1.47;0.83;;;;;;;;;;20633711;28;20286;-84
2023/09/25 21:07:43;;;;;;;1.20;0.70;;;;;;;;;;20638620;28;20621;-84
2023/09/25 21:17:45;;;;;;;2.37;1.20;;;;;;;;;;20682524;28;20246;-85
2023/09/25 21:27:47;;;;;;;1.60;0.97;;;;;;;;;;20702757;28;20247;-85
2023/09/25 21:37:49;;;;;;;1.30;0.87;;;;;;;;;;20678887;28;20273;-85
2023/09/25 21:47:50;;;;;;;1.53;0.90;;;;;;;;;;20649106;28;20223;-84
2023/09/25 21:57:52;;;;;;;1.30;0.80;;;;;;;;;;20656181;28;20525;-86
2023/09/25 22:07:53;;;;;;;2.27;1.00;;;;;;;;;;20643716;28;20212;-84
2023/09/25 22:17:58;;;;;;;1.00;0.80;;;;;;;;;;20626391;28;20224;-84
2023/09/25 22:28:00;;;;;;;1.27;0.80;;;;;;;;;;20626425;28;20302;-85
2023/09/25 22:38:05;;;;;;;1.33;0.70;;;;;;;;;;20627781;28;20220;-85
2023/09/25 22:48:06;;;;;;;1.20;0.70;;;;;;;;;;20659129;28;20584;-84
2023/09/25 22:58:09;;;;;;;1.33;0.80;;;;;;;;;;20666000;28;20749;-83
2023/09/25 23:08:11;;;;;;;1.50;0.90;;;;;;;;;;20661122;28;20279;-84
2023/09/25 23:18:13;;;;;;;1.40;0.60;;;;;;;;;;20663691;28;20219;-83
2023/09/25 23:28:14;;;;;;;1.23;0.70;;;;;;;;;;20650215;28;20231;-84
2023/09/25 23:38:16;;;;;;;1.43;0.60;;;;;;;;;;20659148;28;20223;-85
2023/09/25 23:48:18;;;;;;;1.03;0.63;;;;;;;;;;20654781;28;20676;-83
2023/09/25 23:58:19;;;;;;;1.10;0.63;;;;;;;;;;20665287;28;20287;-83
